Time;durP1;ratioP1;P1;durP2;ratioP2;P2;SDS_P1;SDS_P2;PMS_P1;PMS_P2;Temp;Humidity;BMP_temperature;BMP_pressure;BME280_temperature;BME280_humidity;BME280_pressure;Samples;Min_cycle;Max_cycle;Signal;HPM_P1;HPM_P2
2022/04/27 00:01:43;;;;;;;7.70;4.83;;;;;;;15.64;100.00;99287.38;5033530;28;20265;-84
2022/04/27 00:04:09;;;;;;;5.90;4.70;;;;;;;14.60;100.00;99126.09;5033395;28;20182;-85
2022/04/27 00:06:34;;;;;;;7.33;4.70;;;;;;;15.16;100.00;99238.69;5033893;28;20177;-84
2022/04/27 00:09:00;;;;;;;7.77;5.03;;;;;;;15.31;100.00;99236.44;5036174;28;20602;-85
2022/04/27 00:11:25;;;;;;;6.63;5.00;;;;;;;15.38;100.00;99262.97;5036628;28;20166;-85
2022/04/27 00:13:51;;;;;;;6.60;5.20;;;;;;;15.15;100.00;99224.19;5034898;28;20692;-82
2022/04/27 00:16:16;;;;;;;8.77;5.00;;;;;;;15.47;100.00;99294.66;5034520;28;20225;-85
2022/04/27 00:18:41;;;;;;;8.07;4.90;;;;;;;13.37;100.00;98921.16;5036848;28;20220;-84
2022/04/27 00:21:07;;;;;;;7.10;5.10;;;;;;;15.36;100.00;99261.22;5043781;28;20170;-84
2022/04/27 00:23:34;;;;;;;6.77;5.20;;;;;;;15.31;100.00;99275.56;5035513;28;20225;-84
2022/04/27 00:26:00;;;;;;;12.60;6.60;;;;;;;14.61;100.00;99160.06;5035209;28;20170;-85
2022/04/27 00:28:25;;;;;;;9.87;7.03;;;;;;;14.78;100.00;99192.75;5033595;28;20165;-84
2022/04/27 00:30:51;;;;;;;8.10;5.60;;;;;;;15.29;100.00;99272.13;5033423;28;20186;-84
2022/04/27 00:33:16;;;;;;;7.40;5.03;;;;;;;15.32;100.00;99273.91;5033001;28;20244;-85
2022/04/27 00:35:42;;;;;;;6.67;5.03;;;;;;;14.27;100.00;99104.00;5033404;28;20181;-85
2022/04/27 00:38:08;;;;;;;5.73;5.10;;;;;;;14.31;100.00;99139.75;5033291;28;20194;-85
2022/04/27 00:40:33;;;;;;;6.90;5.10;;;;;;;14.30;100.00;99160.09;5032832;28;20154;-83
2022/04/27 00:42:59;;;;;;;5.80;5.03;;;;;;;13.72;100.00;99087.34;5032842;28;20181;-84
2022/04/27 00:45:24;;;;;;;5.87;5.13;;;;;;;14.32;100.00;99156.81;5032775;28;20526;-84
2022/04/27 00:47:50;;;;;;;8.60;5.60;;;;;;;14.93;100.00;99260.22;5032885;28;20177;-85
2022/04/27 00:50:15;;;;;;;8.20;5.33;;;;;;;14.92;100.00;99255.91;5032630;28;20241;-85
2022/04/27 00:52:42;;;;;;;7.83;4.83;;;;;;;14.58;100.00;99201.63;5032638;28;20189;-85
2022/04/27 00:55:08;;;;;;;7.73;5.60;;;;;;;14.92;100.00;99259.34;5032562;28;20158;-85
2022/04/27 00:57:34;;;;;;;7.83;5.43;;;;;;;14.84;100.00;99263.38;5032726;28;20564;-85
2022/04/27 00:59:59;;;;;;;7.00;5.27;;;;;;;14.23;100.00;99196.44;5032177;28;20174;-85
2022/04/27 01:02:25;;;;;;;8.63;5.80;;;;;;;14.50;100.00;99266.78;5032452;28;20162;-84
2022/04/27 01:04:50;;;;;;;8.53;5.80;;;;;;;13.83;100.00;99181.78;5032963;28;20169;-85
2022/04/27 01:07:16;;;;;;;7.87;5.63;;;;;;;13.37;100.00;99141.50;5032312;28;20596;-84
2022/04/27 01:09:42;;;;;;;7.50;5.90;;;;;;;14.27;100.00;99262.75;5032185;28;20610;-85
2022/04/27 01:12:08;;;;;;;8.40;5.70;;;;;;;14.29;100.00;99240.72;5032719;28;20162;-85
2022/04/27 01:14:45;;;;;;;7.93;5.60;;;;;;;13.43;100.00;99114.53;5032258;28;20202;-85
2022/04/27 01:17:11;;;;;;;7.30;5.60;;;;;;;14.15;100.00;99262.41;5032447;28;20174;-84
2022/04/27 01:19:37;;;;;;;8.27;5.77;;;;;;;14.12;100.00;99259.78;5031703;28;20569;-85
2022/04/27 01:22:03;;;;;;;7.90;6.40;;;;;;;13.64;100.00;99210.94;5032424;28;20170;-84
2022/04/27 01:24:30;;;;;;;8.70;6.47;;;;;;;13.92;100.00;99243.97;5047626;28;20610;-84
2022/04/27 01:26:56;;;;;;;8.17;6.27;;;;;;;13.02;100.00;99087.94;5032361;28;20525;-84
2022/04/27 01:29:24;;;;;;;12.20;6.97;;;;;;;13.94;100.00;99238.91;5032397;28;20180;-85
2022/04/27 01:31:52;;;;;;;8.43;6.87;;;;;;;13.99;100.00;99233.13;5031824;28;20208;-85
2022/04/27 01:34:17;;;;;;;9.67;6.60;;;;;;;13.81;100.00;99194.47;5031857;28;20170;-84
2022/04/27 01:36:43;;;;;;;7.97;6.47;;;;;;;13.36;100.00;99147.38;5031721;28;20165;-84
2022/04/27 01:39:08;;;;;;;8.87;6.87;;;;;;;13.41;100.00;99224.66;5031790;28;20198;-84
2022/04/27 01:41:36;;;;;;;10.10;6.77;;;;;;;13.42;100.00;99244.19;5031700;28;20162;-84
2022/04/27 01:44:02;;;;;;;9.30;6.90;;;;;;;13.67;100.00;99233.91;5031710;28;20154;-84
2022/04/27 01:46:28;;;;;;;11.23;6.90;;;;;;;13.17;100.00;99207.00;5031949;28;20161;-84
2022/04/27 01:48:55;;;;;;;9.03;6.87;;;;;;;12.34;100.00;99050.31;5031674;28;20162;-84
2022/04/27 01:54:15;;;;;;;8.10;6.70;;;;;;;12.64;100.00;99091.00;5031296;28;20178;-84
2022/04/27 01:54:15;;;;;;;12.07;6.60;;;;;;;13.37;100.00;99249.16;5031340;28;20642;-83
2022/04/27 01:56:48;;;;;;;8.30;6.70;;;;;;;12.57;100.00;99099.28;5031613;28;20633;-84
2022/04/27 01:59:13;;;;;;;8.47;6.50;;;;;;;13.42;100.00;99228.94;5034842;28;20586;-84
2022/04/27 02:01:40;;;;;;;9.90;6.93;;;;;;;13.38;100.00;99227.09;5035750;28;20177;-84
2022/04/27 02:04:06;;;;;;;9.67;6.57;;;;;;;13.46;100.00;99234.16;5035480;28;20170;-84
2022/04/27 02:06:35;;;;;;;9.30;6.60;;;;;;;13.65;100.00;99235.56;5035651;28;20169;-84
2022/04/27 02:09:02;;;;;;;8.50;6.60;;;;;;;13.44;100.00;99227.28;5035239;28;20181;-83
2022/04/27 02:11:27;;;;;;;7.23;6.30;;;;;;;13.56;100.00;99232.75;5035799;28;20170;-84
2022/04/27 02:13:55;;;;;;;7.23;6.03;;;;;;;13.52;100.00;99201.28;5035460;28;20211;-83
2022/04/27 02:16:27;;;;;;;7.50;6.63;;;;;;;13.73;100.00;99211.22;5035255;28;20652;-84
2022/04/27 02:18:54;;;;;;;9.00;6.67;;;;;;;13.85;100.00;99236.09;5034877;28;20669;-86
2022/04/27 02:21:20;;;;;;;10.17;6.43;;;;;;;13.63;100.00;99229.56;5035526;28;20158;-84
2022/04/27 02:23:46;;;;;;;8.80;6.90;;;;;;;12.65;100.00;99102.03;5035552;28;20154;-83
2022/04/27 02:26:11;;;;;;;10.20;7.30;;;;;;;13.39;100.00;99232.25;5035520;28;20645;-83
2022/04/27 02:28:37;;;;;;;10.77;7.40;;;;;;;12.99;100.00;99132.72;5035330;28;20279;-83
2022/04/27 02:31:02;;;;;;;10.20;7.60;;;;;;;13.24;100.00;99198.72;5035453;28;20630;-83
2022/04/27 02:33:31;;;;;;;9.57;7.53;;;;;;;13.32;100.00;99226.94;5035920;28;20158;-84
2022/04/27 02:35:57;;;;;;;14.63;8.20;;;;;;;13.15;100.00;99223.03;5035467;28;20245;-85
2022/04/27 02:38:22;;;;;;;11.50;8.50;;;;;;;12.73;100.00;99141.22;5035175;28;20254;-85
2022/04/27 02:40:47;;;;;;;11.70;8.30;;;;;;;13.14;100.00;99221.28;5035619;28;20186;-85
2022/04/27 02:43:14;;;;;;;11.03;8.70;;;;;;;13.30;100.00;99218.38;5035557;28;20193;-86
2022/04/27 02:45:41;;;;;;;13.40;9.97;;;;;;;13.04;100.00;99225.22;5035369;28;20166;-83
2022/04/27 02:48:07;;;;;;;15.10;9.50;;;;;;;11.76;100.00;99008.69;5034921;28;20530;-84
2022/04/27 02:53:16;;;;;;;13.40;10.27;;;;;;;12.72;100.00;99216.56;5035417;28;20173;-85
2022/04/27 02:55:42;;;;;;;15.53;10.53;;;;;;;12.90;100.00;99218.84;5035651;28;20161;-84
2022/04/27 02:58:07;;;;;;;16.40;11.17;;;;;;;12.82;100.00;99212.66;5034782;28;20186;-84
2022/04/27 03:00:34;;;;;;;15.03;10.57;;;;;;;12.91;100.00;99220.56;5035640;28;20177;-84
2022/04/27 03:02:59;;;;;;;16.53;11.00;;;;;;;12.53;100.00;99122.84;5035332;28;20164;-85
2022/04/27 03:05:25;;;;;;;14.47;11.40;;;;;;;11.81;100.00;99035.94;5035407;28;20248;-84
2022/04/27 03:07:50;;;;;;;14.83;10.87;;;;;;;10.66;100.00;98808.22;5034592;28;20163;-84
2022/04/27 03:10:15;;;;;;;15.93;10.90;;;;;;;13.26;100.00;99237.78;5035201;28;20188;-84
2022/04/27 03:12:41;;;;;;;15.10;10.50;;;;;;;12.76;100.00;99119.34;5034563;28;20645;-83
2022/04/27 03:15:06;;;;;;;14.47;10.17;;;;;;;13.33;100.00;99213.41;5034774;28;20297;-83
2022/04/27 03:17:32;;;;;;;15.27;10.77;;;;;;;12.97;100.00;99172.47;5034486;28;20192;-83
2022/04/27 03:19:57;;;;;;;16.10;11.30;;;;;;;13.32;100.00;99212.53;5033229;28;20176;-83
2022/04/27 03:22:23;;;;;;;16.20;11.63;;;;;;;13.58;100.00;99241.28;5034722;28;20166;-84
2022/04/27 03:24:48;;;;;;;19.17;10.97;;;;;;;13.53;100.00;99237.75;5034335;28;20193;-84
2022/04/27 03:27:14;;;;;;;19.33;11.80;;;;;;;12.80;100.00;99122.84;5033962;28;20204;-83
2022/04/27 03:29:39;;;;;;;24.17;15.63;;;;;;;12.74;100.00;99109.94;5034985;28;20172;-84
2022/04/27 03:32:05;;;;;;;23.07;15.77;;;;;;;13.48;100.00;99246.94;5034973;28;20165;-83
2022/04/27 03:34:30;;;;;;;20.50;14.60;;;;;;;13.54;100.00;99250.50;5034507;28;20173;-85
2022/04/27 03:36:55;;;;;;;19.47;13.87;;;;;;;13.12;100.00;99193.31;5035724;28;20212;-84
2022/04/27 03:39:21;;;;;;;16.80;11.73;;;;;;;13.46;100.00;99258.72;5035097;28;20197;-85
2022/04/27 03:41:46;;;;;;;17.63;11.93;;;;;;;13.44;100.00;99256.13;5034356;28;20162;-85
2022/04/27 03:44:12;;;;;;;18.67;12.00;;;;;;;13.47;100.00;99258.78;5034588;28;20637;-84
2022/04/27 03:46:37;;;;;;;18.17;12.40;;;;;;;13.40;100.00;99233.13;5034416;28;20186;-83
2022/04/27 03:49:02;;;;;;;17.27;12.20;;;;;;;11.72;100.00;98951.09;5029737;28;20201;-83
2022/04/27 03:51:28;;;;;;;18.77;12.93;;;;;;;13.50;100.00;99263.09;5030120;28;20185;-85
2022/04/27 03:53:54;;;;;;;19.67;13.27;;;;;;;13.57;100.00;99278.56;5036408;28;20193;-84
2022/04/27 03:56:22;;;;;;;17.10;13.07;;;;;;;12.05;100.00;98996.94;5032729;28;20182;-85
2022/04/27 03:58:48;;;;;;;25.43;16.37;;;;;;;12.00;100.00;98983.25;5032692;28;20212;-84
2022/04/27 04:01:13;;;;;;;19.53;13.60;;;;;;;13.86;100.00;99284.50;5032530;28;20185;-84
2022/04/27 04:03:38;;;;;;;24.50;14.33;;;;;;;13.92;100.00;99294.00;5032449;28;20269;-85
2022/04/27 04:06:04;;;;;;;28.67;14.83;;;;;;;13.15;100.00;99164.56;5032194;28;20267;-84
2022/04/27 04:08:29;;;;;;;22.67;12.40;;;;;;;13.61;100.00;99269.34;5032336;28;20232;-84
2022/04/27 04:10:55;;;;;;;24.63;12.87;;;;;;;13.60;100.00;99250.69;5028437;28;20190;-84
2022/04/27 04:13:20;;;;;;;21.53;12.13;;;;;;;13.37;100.00;99221.19;5012269;28;20191;-85
2022/04/27 04:15:46;;;;;;;20.00;12.27;;;;;;;13.93;100.00;99299.13;5014166;28;20229;-85
2022/04/27 04:18:11;;;;;;;22.40;12.80;;;;;;;13.82;100.00;99282.69;5031334;28;20237;-84
2022/04/27 04:20:37;;;;;;;24.40;13.03;;;;;;;13.89;100.00;99291.38;5030220;28;20198;-83
2022/04/27 04:23:03;;;;;;;22.40;13.50;;;;;;;13.96;100.00;99300.91;5031451;28;20190;-84
2022/04/27 04:28:30;;;;;;;23.13;13.20;;;;;;;13.38;100.00;99216.94;5032316;28;20200;-83
2022/04/27 04:30:59;;;;;;;22.67;14.30;;;;;;;12.81;100.00;99134.69;5036907;28;20208;-84
2022/04/27 04:33:25;;;;;;;19.33;13.57;;;;;;;13.24;100.00;99238.56;5036003;28;20225;-85
2022/04/27 04:35:52;;;;;;;20.93;14.27;;;;;;;13.43;100.00;99310.34;5032379;28;20836;-83
2022/04/27 04:38:17;;;;;;;21.53;14.33;;;;;;;12.93;100.00;99229.97;5032139;28;20268;-84
2022/04/27 04:40:43;;;;;;;21.33;13.90;;;;;;;12.86;100.00;99240.72;5032583;28;20632;-85
2022/04/27 04:43:09;;;;;;;30.23;22.60;;;;;;;13.25;100.00;99311.47;5012516;28;20737;-84
2022/04/27 04:45:34;;;;;;;66.73;47.33;;;;;;;13.14;100.00;99311.13;5030822;28;20281;-83
2022/04/27 04:48:00;;;;;;;61.07;41.20;;;;;;;12.67;100.00;99253.66;5031101;28;20260;-84
2022/04/27 04:50:25;;;;;;;47.37;34.40;;;;;;;12.60;100.00;99215.31;5021569;28;20694;-84
2022/04/27 04:52:51;;;;;;;40.60;27.07;;;;;;;13.00;100.00;99231.88;5029719;28;20182;-84
2022/04/27 04:55:16;;;;;;;27.17;20.23;;;;;;;13.26;100.00;99273.38;5032135;28;20331;-84
2022/04/27 04:57:41;;;;;;;22.70;15.73;;;;;;;13.11;100.00;99275.44;5031826;28;20181;-84
2022/04/27 05:00:09;;;;;;;29.80;22.37;;;;;;;13.26;100.00;99265.75;5031722;28;20258;-83
2022/04/27 05:02:34;;;;;;;28.30;20.60;;;;;;;12.46;100.00;99127.69;5031528;28;20201;-85
2022/04/27 05:05:02;;;;;;;25.97;17.57;;;;;;;14.13;100.00;99320.06;5030666;28;20753;-83
2022/04/27 05:07:30;;;;;;;23.67;15.23;;;;;;;13.48;100.00;99175.72;5030540;28;20185;-84
2022/04/27 05:09:55;;;;;;;19.27;13.80;;;;;;;12.75;100.00;99093.88;5031372;28;20186;-84
2022/04/27 05:12:21;;;;;;;17.13;12.60;;;;;;;13.64;100.00;99241.47;5018205;28;20182;-84
2022/04/27 05:14:46;;;;;;;17.40;11.83;;;;;;;13.92;100.00;99299.97;5024155;28;20224;-84
2022/04/27 05:17:12;;;;;;;16.73;12.17;;;;;;;12.59;100.00;99061.22;5033898;28;20181;-85
2022/04/27 05:19:37;;;;;;;17.17;11.83;;;;;;;13.82;100.00;99269.97;5030965;28;20225;-85
2022/04/27 05:22:03;;;;;;;16.30;11.43;;;;;;;14.29;100.00;99327.31;5021074;28;20221;-84
2022/04/27 05:24:29;;;;;;;15.83;11.80;;;;;;;13.52;100.00;99158.03;5030935;28;20182;-84
2022/04/27 05:26:55;;;;;;;16.47;11.90;;;;;;;13.69;100.00;99183.06;5031387;28;20182;-84
2022/04/27 05:32:05;;;;;;;18.53;11.83;;;;;;;14.07;100.00;99207.88;5025112;28;20232;-85
2022/04/27 05:34:33;;;;;;;17.77;12.20;;;;;;;14.44;100.00;99223.34;5035560;28;20186;-85
2022/04/27 05:36:59;;;;;;;19.63;11.60;;;;;;;14.94;100.00;99326.53;5030942;28;20196;-84
2022/04/27 05:39:25;;;;;;;16.30;10.60;;;;;;;13.89;100.00;99167.53;5030972;28;20689;-84
2022/04/27 05:41:51;;;;;;;14.73;10.90;;;;;;;12.74;100.00;98976.19;5029232;28;20244;-84
2022/04/27 05:44:22;;;;;;;17.20;10.83;;;;;;;13.52;100.00;99091.91;5030238;28;20181;-84
2022/04/27 05:46:48;;;;;;;14.50;10.30;;;;;;;14.23;100.00;99179.44;5029670;28;20221;-83
2022/04/27 05:49:14;;;;;;;18.17;12.20;;;;;;;14.36;100.00;99206.13;5021731;28;20186;-84
2022/04/27 05:51:40;;;;;;;15.97;10.90;;;;;;;13.75;100.00;99112.00;5030290;28;20197;-84
2022/04/27 05:54:05;;;;;;;13.37;10.33;;;;;;;12.67;100.00;98861.69;5030198;28;20662;-85
2022/04/27 05:56:31;;;;;;;11.90;10.00;;;;;;;15.30;100.00;99285.72;5030999;28;20308;-85
2022/04/27 05:58:56;;;;;;;13.50;9.67;;;;;;;15.76;100.00;99352.34;5033722;28;20593;-83
2022/04/27 06:01:21;;;;;;;11.70;8.70;;;;;;;14.45;100.00;99129.97;5031307;28;20252;-85
2022/04/27 06:03:47;;;;;;;13.13;9.07;;;;;;;15.61;100.00;99346.88;5023866;28;20193;-85
2022/04/27 06:06:12;;;;;;;12.70;9.20;;;;;;;15.10;100.00;99264.03;5031706;28;20190;-85
2022/04/27 06:08:38;;;;;;;13.67;8.87;;;;;;;14.48;100.00;99115.59;5031800;28;20717;-85
2022/04/27 06:11:03;;;;;;;11.50;8.57;;;;;;;15.10;100.00;99226.66;5031431;28;20243;-85
2022/04/27 06:13:30;;;;;;;10.47;8.17;;;;;;;15.40;100.00;99272.38;5030965;28;20182;-85
2022/04/27 06:15:57;;;;;;;12.30;7.37;;;;;;;16.38;100.00;99360.44;5063363;28;20222;-86
2022/04/27 06:18:22;;;;;;;9.33;7.40;;;;;;;15.12;100.00;99202.03;5031191;28;20210;-84
2022/04/27 06:20:47;;;;;;;10.37;7.93;;;;;;;15.30;100.00;99140.34;5031071;28;20190;-86
2022/04/27 06:23:15;;;;;;;11.73;8.17;;;;;;;15.87;100.00;99184.94;5046128;28;20239;-85
2022/04/27 06:25:41;;;;;;;10.33;7.17;;;;;;;17.56;100.00;99360.91;5029507;28;20860;-85
2022/04/27 06:28:08;;;;;;;10.43;6.97;;;;;;;17.65;100.00;99367.88;5030922;28;20213;-86
2022/04/27 06:30:35;;;;;;;11.90;7.03;;;;;;;17.32;100.00;99369.88;5031731;28;20248;-85
2022/04/27 06:33:01;;;;;;;9.50;6.60;;;;;;;16.87;100.00;99364.81;5032138;28;20185;-85
2022/04/27 06:35:27;;;;;;;9.47;6.73;;;;;;;17.10;100.00;99372.06;5031974;28;20189;-86
2022/04/27 06:37:52;;;;;;;8.13;6.77;;;;;;;17.80;100.00;99383.44;5031592;28;20186;-85
2022/04/27 06:40:17;;;;;;;8.90;5.60;;;;;;;17.31;100.00;99282.00;5031254;28;20189;-85
2022/04/27 06:42:44;;;;;;;6.60;4.53;;;;;;;17.06;100.00;99244.94;5019943;28;20190;-84
2022/04/27 06:45:10;;;;;;;11.40;5.43;;;;;;;16.37;100.00;99093.84;5029938;28;20273;-85
2022/04/27 06:47:35;;;;;;;7.07;5.60;;;;;;;17.85;100.00;99307.56;5035238;28;20230;-85
2022/04/27 06:50:01;;;;;;;7.20;5.03;;;;;;;17.39;100.00;99243.72;5023533;28;20320;-86
2022/04/27 06:52:26;;;;;;;7.23;5.10;;;;;;;17.27;100.00;99212.84;5024040;28;20264;-85
2022/04/27 06:54:52;;;;;;;8.57;6.27;;;;;;;17.93;100.00;99259.84;5025416;28;20201;-85
2022/04/27 06:57:17;;;;;;;8.13;5.50;;;;;;;17.07;100.00;99141.81;5034052;28;20573;-85
2022/04/27 06:59:42;;;;;;;9.37;6.20;;;;;;;17.21;100.00;99061.81;5034346;28;20284;-84
2022/04/27 07:02:12;;;;;;;7.23;5.63;;;;;;;17.74;100.00;99129.00;5033489;28;20187;-85
2022/04/27 07:04:40;;;;;;;9.40;5.33;;;;;;;18.56;100.00;99274.22;5036931;28;20178;-86
2022/04/27 07:07:07;;;;;;;9.93;5.47;;;;;;;19.23;100.00;99362.91;5033710;28;20193;-85
2022/04/27 07:09:33;;;;;;;8.10;5.67;;;;;;;18.59;100.00;99244.34;5034039;28;20209;-85
2022/04/27 07:11:59;;;;;;;11.23;7.07;;;;;;;19.29;100.00;99384.38;5028953;28;20209;-83
2022/04/27 07:14:24;;;;;;;10.60;6.00;;;;;;;19.15;100.00;99355.16;5031756;28;20181;-84
2022/04/27 07:16:50;;;;;;;10.80;5.87;;;;;;;18.90;100.00;99253.16;5033338;28;20221;-85
2022/04/27 07:19:15;;;;;;;9.83;5.80;;;;;;;20.29;100.00;99389.38;5032717;28;20658;-84
2022/04/27 07:21:41;;;;;;;10.87;6.00;;;;;;;20.49;100.00;99393.75;5032584;28;20182;-86
2022/04/27 07:24:07;;;;;;;9.10;6.73;;;;;;;20.13;100.00;99320.72;5033793;28;20186;-84
2022/04/27 07:26:32;;;;;;;12.37;8.03;;;;;;;20.07;100.00;99248.72;5032628;28;20681;-85
2022/04/27 07:28:58;;;;;;;8.03;6.10;;;;;;;21.08;100.00;99385.38;5033277;28;20752;-84
2022/04/27 07:31:24;;;;;;;9.57;6.33;;;;;;;20.98;100.00;99388.75;5032736;28;20181;-84
2022/04/27 07:33:50;;;;;;;11.40;8.60;;;;;;;20.20;100.00;99246.19;5017524;28;20204;-85
2022/04/27 07:36:15;;;;;;;12.57;6.83;;;;;;;20.94;100.00;99384.44;5033468;28;20772;-84
2022/04/27 07:38:41;;;;;;;13.70;6.70;;;;;;;20.73;100.00;99258.31;5029416;28;20213;-84
2022/04/27 07:41:07;;;;;;;11.30;6.20;;;;;;;21.14;100.00;99339.91;5024016;28;20265;-86
2022/04/27 07:43:33;;;;;;;14.03;6.60;;;;;;;21.48;72.68;99386.25;5032771;28;20177;-85
2022/04/27 07:46:00;;;;;;;11.27;6.40;;;;;;;20.32;73.07;99176.84;5036340;28;20189;-84
2022/04/27 07:48:32;;;;;;;10.80;6.00;;;;;;;20.82;71.98;99212.84;5033880;28;20843;-84
2022/04/27 07:50:58;;;;;;;9.77;5.87;;;;;;;20.92;72.21;99235.19;5016722;28;20225;-85
2022/04/27 07:53:23;;;;;;;11.47;6.27;;;;;;;20.72;71.28;99210.28;5019372;28;20190;-85
2022/04/27 07:55:49;;;;;;;9.67;6.33;;;;;;;21.62;70.82;99351.00;5032314;28;20543;-86
2022/04/27 07:58:14;;;;;;;9.03;6.40;;;;;;;22.24;69.61;99371.53;5029892;28;20245;-84
2022/04/27 08:00:39;;;;;;;10.07;6.73;;;;;;;21.89;69.04;99286.56;5021189;28;20194;-84
2022/04/27 08:03:05;;;;;;;11.83;6.70;;;;;;;22.13;69.09;99322.56;5031561;28;20170;-85
2022/04/27 08:05:31;;;;;;;11.43;6.77;;;;;;;21.60;69.66;99247.09;5031282;28;20197;-86
2022/04/27 08:07:56;;;;;;;10.63;6.60;;;;;;;21.76;68.84;99202.38;5031496;28;20268;-83
2022/04/27 08:10:22;;;;;;;12.07;6.83;;;;;;;22.86;69.01;99372.09;5031135;28;20190;-85
2022/04/27 08:12:49;;;;;;;14.60;7.40;;;;;;;22.84;69.67;99354.91;5031285;28;20213;-85
2022/04/27 08:15:16;;;;;;;13.43;6.80;;;;;;;22.17;68.07;99244.31;5030405;28;20214;-85
2022/04/27 08:18:03;;;;;;;13.00;7.00;;;;;;;23.21;67.58;99378.78;5012222;28;20273;-85
2022/04/27 08:23:16;;;;;;;12.17;7.50;;;;;;;23.01;68.13;99357.38;5011893;28;20343;-85
2022/04/27 08:25:43;;;;;;;14.13;6.30;;;;;;;22.09;68.30;99232.31;5028416;28;20185;-84
2022/04/27 08:28:09;;;;;;;13.13;7.20;;;;;;;22.27;69.16;99343.16;5024851;28;20186;-86
2022/04/27 08:30:36;;;;;;;11.23;7.20;;;;;;;22.62;69.13;99372.22;5030450;28;20264;-84
2022/04/27 08:33:03;;;;;;;12.27;7.60;;;;;;;23.14;67.00;99359.00;5031151;28;20188;-84
2022/04/27 08:35:30;;;;;;;13.40;6.93;;;;;;;23.78;66.14;99373.13;5030388;28;20193;-84
2022/04/27 08:37:55;;;;;;;13.27;6.70;;;;;;;22.92;66.66;99323.03;5029123;28;20285;-84
2022/04/27 08:40:21;;;;;;;9.93;6.87;;;;;;;22.99;67.40;99359.97;5031971;28;20238;-84
2022/04/27 08:42:49;;;;;;;10.10;5.97;;;;;;;23.22;61.93;99296.09;5042796;28;20186;-83
2022/04/27 08:45:16;;;;;;;14.60;6.83;;;;;;;23.36;62.65;99350.22;5040972;28;20192;-83
2022/04/27 08:47:42;;;;;;;13.00;7.00;;;;;;;23.77;63.84;99349.88;5031156;28;20198;-84
2022/04/27 08:50:15;;;;;;;11.70;6.43;;;;;;;24.21;61.58;99352.84;5015340;28;20375;-83
2022/04/27 08:52:41;;;;;;;18.27;7.03;;;;;;;24.08;61.25;99286.59;5028865;28;20268;-85
2022/04/27 08:55:10;;;;;;;14.97;6.40;;;;;;;24.86;59.44;99346.00;5031518;28;20186;-85
2022/04/27 08:57:37;;;;;;;13.77;7.60;;;;;;;24.58;60.79;99314.44;5023427;28;20248;-84
2022/04/27 09:00:05;;;;;;;14.70;8.10;;;;;;;23.62;60.71;99169.94;5027500;28;20206;-84
2022/04/27 09:02:30;;;;;;;22.90;7.20;;;;;;;24.55;58.91;99267.88;5014666;28;20224;-85
2022/04/27 09:05:09;;;;;;;17.13;6.83;;;;;;;24.96;58.62;99343.25;5030528;28;20605;-85
2022/04/27 09:07:38;;;;;;;15.73;6.27;;;;;;;24.61;58.08;99335.94;5024832;28;20189;-84
2022/04/27 09:10:06;;;;;;;9.30;6.00;;;;;;;23.32;60.12;99245.22;5030834;28;20190;-84
2022/04/27 09:12:31;;;;;;;11.00;6.07;;;;;;;23.61;59.88;99279.38;5032027;28;20192;-84
2022/04/27 09:15:06;;;;;;;15.80;6.43;;;;;;;24.38;59.32;99343.16;5031356;28;20221;-82
2022/04/27 09:23:02;;;;;;;10.83;5.47;;;;;;;24.55;58.16;99330.00;5031492;28;20204;-83
2022/04/27 09:25:45;;;;;;;12.93;6.20;;;;;;;23.94;59.81;99322.97;5031412;28;20185;-84
2022/04/27 09:28:10;;;;;;;9.40;5.97;;;;;;;23.67;59.36;99188.84;5031656;28;20221;-84
2022/04/27 09:30:36;;;;;;;12.20;6.27;;;;;;;23.45;59.71;99128.81;5031837;28;20275;-84
2022/04/27 09:33:02;;;;;;;12.23;7.27;;;;;;;23.58;61.05;99217.38;5032164;28;20228;-84
2022/04/27 09:35:35;;;;;;;15.50;6.80;;;;;;;24.07;61.90;99310.72;5032085;28;20237;-86
2022/04/27 09:38:18;;;;;;;12.67;7.03;;;;;;;24.11;62.97;99316.78;5019881;28;20225;-84
2022/04/27 09:40:55;;;;;;;9.80;6.03;;;;;;;24.08;60.09;99313.31;5018878;28;20186;-85
2022/04/27 09:43:41;;;;;;;13.73;6.73;;;;;;;24.57;61.08;99312.72;5030708;28;20268;-85
2022/04/27 09:46:23;;;;;;;13.73;7.23;;;;;;;24.25;62.69;99299.34;5027050;28;20178;-85
2022/04/27 09:49:04;;;;;;;12.53;5.63;;;;;;;24.33;60.31;99313.03;5015339;28;20201;-86
2022/04/27 09:51:31;;;;;;;9.73;5.20;;;;;;;24.64;58.73;99311.72;5014948;28;20312;-83
2022/04/27 09:54:00;;;;;;;7.70;4.57;;;;;;;24.91;56.82;99308.78;5031307;28;20174;-84
2022/04/27 09:56:28;;;;;;;7.47;4.80;;;;;;;24.32;56.91;99244.03;5029310;28;20681;-85
2022/04/27 09:58:56;;;;;;;8.60;4.90;;;;;;;23.96;58.28;99229.84;5062183;28;20194;-84
2022/04/27 10:01:22;;;;;;;8.83;4.77;;;;;;;24.39;58.38;99302.63;5030696;28;20263;-83
2022/04/27 10:03:56;;;;;;;8.97;5.67;;;;;;;23.46;60.14;99217.50;5026336;28;20179;-85
2022/04/27 10:06:22;;;;;;;11.03;5.50;;;;;;;23.22;60.54;99146.25;5011899;28;20210;-85
2022/04/27 10:08:51;;;;;;;9.13;5.20;;;;;;;24.45;59.13;99300.78;5030221;28;20185;-83
2022/04/27 10:11:17;;;;;;;10.27;5.17;;;;;;;24.39;59.81;99300.03;5020296;28;20639;-85
2022/04/27 10:13:43;;;;;;;9.37;5.50;;;;;;;23.61;61.47;99320.72;5015345;28;20181;-85
2022/04/27 10:16:09;;;;;;;8.63;4.80;;;;;;;24.15;59.68;99303.78;5031249;28;20231;-84
2022/04/27 10:18:35;;;;;;;10.00;4.70;;;;;;;24.42;58.59;99253.41;5034331;28;20205;-84
2022/04/27 10:21:04;;;;;;;7.37;5.00;;;;;;;24.81;57.87;99293.38;5026477;28;20182;-82
2022/04/27 10:23:32;;;;;;;9.47;5.00;;;;;;;24.37;58.75;99278.47;5028787;28;20186;-83
2022/04/27 10:26:12;;;;;;;7.47;4.63;;;;;;;24.70;59.49;99277.13;5035217;28;20182;-84
2022/04/27 10:28:53;;;;;;;9.23;4.27;;;;;;;24.88;58.33;99282.94;5036133;28;20685;-84
2022/04/27 10:31:46;;;;;;;8.53;5.00;;;;;;;25.10;56.81;99278.25;5034713;28;20188;-84
2022/04/27 10:34:18;;;;;;;7.33;4.40;;;;;;;24.29;57.30;99193.19;5031946;28;20191;-84
2022/04/27 10:36:44;;;;;;;10.57;4.60;;;;;;;24.07;58.79;99186.56;5029083;28;20179;-83
2022/04/27 10:39:12;;;;;;;6.13;4.10;;;;;;;24.98;56.52;99270.66;5065738;28;20287;-86
2022/04/27 10:42:00;;;;;;;8.97;4.30;;;;;;;25.01;57.45;99273.22;5033970;28;20724;-85
2022/04/27 10:44:47;;;;;;;7.93;4.23;;;;;;;25.38;56.42;99274.28;5031009;28;20205;-86
2022/04/27 10:47:14;;;;;;;8.57;5.17;;;;;;;24.05;57.16;99184.03;5023629;28;20190;-84
2022/04/27 10:49:40;;;;;;;8.43;4.07;;;;;;;23.24;57.91;99099.75;5036453;28;20188;-86
2022/04/27 10:52:07;;;;;;;7.80;4.03;;;;;;;24.25;57.86;99232.06;5022929;28;20225;-84
2022/04/27 10:54:37;;;;;;;10.77;4.20;;;;;;;24.31;57.29;99224.22;5035175;28;20193;-85
2022/04/27 10:57:14;;;;;;;7.13;4.13;;;;;;;24.64;57.09;99257.34;5032241;28;20190;-84
2022/04/27 10:59:48;;;;;;;5.53;4.67;;;;;;;24.54;58.26;99255.78;5033370;28;20256;-83
2022/04/27 11:02:45;;;;;;;7.80;4.10;;;;;;;24.06;58.50;99216.75;5033077;28;20190;-83
2022/04/27 11:05:10;;;;;;;5.23;3.30;;;;;;;24.24;57.05;99257.09;5010704;28;20297;-84
2022/04/27 11:07:53;;;;;;;7.93;3.40;;;;;;;23.01;58.04;99078.50;5010304;28;20203;-85
2022/04/27 11:10:21;;;;;;;7.43;3.43;;;;;;;23.39;58.75;99177.09;5010363;28;20269;-84
2022/04/27 11:12:51;;;;;;;9.73;3.10;;;;;;;24.20;58.04;99255.41;5010732;28;20613;-85
2022/04/27 11:15:21;;;;;;;5.87;3.00;;;;;;;24.02;58.07;99250.44;4995813;28;20302;-84
2022/04/27 11:17:55;;;;;;;6.10;2.95;;;;;;;23.34;58.65;99173.69;5003218;28;20679;-84
2022/04/27 11:20:23;;;;;;;6.83;3.53;;;;;;;24.26;58.14;99246.69;5010954;28;20217;-84
2022/04/27 11:22:49;;;;;;;10.20;3.33;;;;;;;23.39;56.69;99071.16;5008997;28;20201;-84
2022/04/27 11:25:23;;;;;;;5.90;3.30;;;;;;;24.70;57.88;99239.16;4996830;28;20278;-86
2022/04/27 11:27:49;;;;;;;5.27;3.23;;;;;;;25.10;56.48;99200.53;4996143;28;20231;-83
2022/04/27 11:30:15;;;;;;;6.50;3.00;;;;;;;25.13;54.69;99154.66;4989877;28;20279;-85
2022/04/27 11:32:44;;;;;;;7.20;2.60;;;;;;;26.03;53.91;99225.50;4995976;28;20180;-84
2022/04/27 11:35:10;;;;;;;5.07;3.17;;;;;;;25.49;53.01;99071.94;5002545;28;20617;-86
2022/04/27 11:37:37;;;;;;;8.63;3.20;;;;;;;25.55;52.11;99043.25;5006155;28;20190;-83
2022/04/27 11:40:13;;;;;;;5.90;3.10;;;;;;;25.63;53.11;99235.81;5015408;28;20212;-84